CMA CGM Tosca — FMEL — position and weather

sailwx.info

Track history (hours):
 
Tides and Currents Weather Stations Pressure Air Temp Water Temp Dewpoint Dewpoint Depression Visibility Wind Speed Wind Dir Waves Ship Positions

CMA CGM Tosca

Last reported at 2016-Jul-27 19:13 UTC. Time now 2016-Aug-28 00:31 UTC.
Position N 28°54' E 032°51'.
Warning: this ship's position is 31 days out of date.

Length 334 m; draft 13 m.

Type: Ship. MMSI: 228335900.

Date/timePositionNaut miles runAvg speedWind from/ knotsBaromVisibWave heightAir tempDewpointWater temp
2016-Jul-27 19:13N 28°54' E 032°51'153 9.6
2016-Jul-27 03:17N 31°25' E 032°22'2 2.2
2016-Jul-27 02:24N 31°26' E 032°20'0 0.0
2016-Jul-27 00:30N 31°26' E 032°20'0 0.0
2016-Jul-26 23:33N 31°26' E 032°20'0 0.0
2016-Jul-26 22:27N 31°26' E 032°20'0 0.0
2016-Jul-26 21:12N 31°26' E 032°20'0 0.2
2016-Jul-26 20:17N 31°26' E 032°20'811.1
2016-Jul-26 19:33N 31°32' E 032°13'1816.0
2016-Jul-26 18:28N 31°44' E 031°58'1415.7
2016-Jul-26 17:33N 31°51' E 031°43'1616.2
2016-Jul-26 16:33N 31°57' E 031°25'1615.9
2016-Jul-26 15:32N 32°01' E 031°07'1515.6
2016-Jul-26 14:33N 32°06' E 030°50'1615.7
2016-Jul-26 13:34N 32°10' E 030°32'1815.8
2016-Jul-26 12:26N 32°16' E 030°12'1415.9
2016-Jul-26 11:33N 32°20' E 029°57'20016.6
2016-Jul-25 23:33N 33°20' E 026°10'54816.1
2016-Jul-24 13:33N 36°06' E 015°34'1616.2
2016-Jul-24 12:33N 36°12' E 015°15'1616.0
2016-Jul-24 11:33N 36°17' E 014°57'1615.9
2016-Jul-24 10:33N 36°22' E 014°38'1616.1
2016-Jul-24 09:33N 36°26' E 014°18'1716.6
2016-Jul-24 08:33N 36°31' E 013°59'1616.1
2016-Jul-24 07:33N 36°36' E 013°40'1616.5
2016-Jul-24 06:33N 36°42' E 013°20'1716.6
2016-Jul-24 05:33N 36°46' E 013°00'1616.2
2016-Jul-24 04:33N 36°51' E 012°41'1616.3
2016-Jul-24 03:33N 36°56' E 012°22'1716.7
2016-Jul-24 02:33N 37°01' E 012°02'1616.4
2016-Jul-24 01:33N 37°08' E 011°43'1716.7
2016-Jul-24 00:30N 37°17' E 011°24'38916.2
2016-Jul-23 00:26N 36°60' E 003°16'1516.6
2016-Jul-22 23:32N 36°58' E 002°58'1616.5
2016-Jul-22 22:33N 36°56' E 002°38'1616.3
2016-Jul-22 21:33N 36°53' E 002°18'1716.9
2016-Jul-22 20:32N 36°51' E 001°56'1616.4
2016-Jul-22 19:33N 36°48' E 001°36'1716.9
2016-Jul-22 18:33N 36°46' E 001°16'1716.8
2016-Jul-22 17:34N 36°44' E 000°55'1616.2
2016-Jul-22 16:33N 36°41' E 000°35'1816.7
2016-Jul-22 15:28N 36°39' E 000°13'1516.6
2016-Jul-22 14:33N 36°37' W 000°06'1716.6
2016-Jul-22 13:33N 36°34' W 000°27'1716.7
2016-Jul-22 12:33N 36°33' W 000°47'1716.6
2016-Jul-22 11:33N 36°30' W 001°08'1616.3
2016-Jul-22 10:33N 36°28' W 001°28'18516.8
2016-Jul-21 23:33N 35°59' W 005°14'4117.5
2016-Jul-21 21:12N 35°54' W 006°05'5216.6
2016-Jul-21 18:04N 36°06' W 007°08'816.4
2016-Jul-21 17:33N 36°08' W 007°18'1616.3
2016-Jul-21 16:33N 36°12' W 007°38'1616.4
2016-Jul-21 15:33N 36°17' W 007°57'1616.2
2016-Jul-21 14:33N 36°21' W 008°16'1616.3
2016-Jul-21 13:33N 36°25' W 008°36'1616.4
2016-Jul-21 12:33N 36°28' W 008°56'1616.4
2016-Jul-21 11:33N 36°33' W 009°16'1716.1
2016-Jul-21 10:31N 36°45' W 009°30'1616.2
2016-Jul-21 09:32N 36°60' W 009°36'2116.3
2016-Jul-21 08:15N 37°20' W 009°43'1116.5
2016-Jul-21 07:33N 37°31' W 009°46'1716.4
2016-Jul-21 06:33N 37°47' W 009°51'1616.2
2016-Jul-21 05:33N 38°03' W 009°55'1716.9
2016-Jul-21 04:33N 38°19' W 010°01'1717.2
2016-Jul-21 03:33N 38°36' W 010°06'1816.8
2016-Jul-21 02:30N 38°54' W 010°07'1616.2
2016-Jul-21 01:32N 39°09' W 010°07'1616.7
2016-Jul-21 00:33N 39°26' W 010°07'1716.8
2016-Jul-20 23:31N 39°43' W 010°08'1616.7
2016-Jul-20 22:33N 39°60' W 010°08'1816.9
2016-Jul-20 21:28N 40°18' W 010°07'40716.3
2016-Jul-19 20:33N 46°48' W 007°28'1616.6
2016-Jul-19 19:34N 47°02' W 007°17'1716.7
2016-Jul-19 18:33N 47°17' W 007°05'1616.1
2016-Jul-19 17:33N 47°31' W 006°54'2216.6
2016-Jul-19 16:15N 47°49' W 006°37'1216.1
2016-Jul-19 15:32N 48°00' W 006°30'1515.4
2016-Jul-19 14:33N 48°13' W 006°19'1515.2
2016-Jul-19 13:33N 48°27' W 006°09'1515.5
2016-Jul-19 12:33N 48°41' W 005°59'1616.1
2016-Jul-19 11:33N 48°55' W 005°46'1717.0
2016-Jul-19 10:33N 49°03' W 005°23'1917.5
2016-Jul-19 09:28N 49°12' W 004°58'1617.2
2016-Jul-19 08:32N 49°20' W 004°37'1616.5
2016-Jul-19 07:34N 49°28' W 004°16'4815.9
2016-Jul-19 04:34N 49°52' W 003°12'1716.7
2016-Jul-19 03:33N 50°00' W 002°49'1817.9
2016-Jul-19 02:33N 50°04' W 002°21'1919.2
2016-Jul-19 01:33N 50°04' W 001°52'1918.9
2016-Jul-19 00:34N 49°53' W 001°27'2020.1
2016-Jul-18 23:33N 49°46' W 000°59'1818.0
2016-Jul-18 22:34N 49°38' W 000°33'1716.7
2016-Jul-18 21:34N 49°32' W 000°09'1212.4
2016-Jul-18 20:33N 49°28' E 000°09'1 1.0
2016-Jul-18 19:32N 49°29' E 000°10'0 0.0
2016-Jul-18 18:32N 49°29' E 000°10'0 0.0
2016-Jul-18 17:32N 49°29' E 000°10'0 0.0
2016-Jul-18 16:32N 49°29' E 000°10'0 0.0
2016-Jul-18 15:29N 49°29' E 000°10'0 0.0
2016-Jul-18 14:32N 49°29' E 000°10'0 0.0
2016-Jul-18 13:32N 49°29' E 000°10'0 0.0
2016-Jul-18 12:32N 49°29' E 000°10'0 0.0
2016-Jul-18 11:32N 49°29' E 000°10'0 0.0
2016-Jul-18 10:32N 49°29' E 000°10'0 0.0
2016-Jul-18 09:32N 49°29' E 000°10'0 0.0
2016-Jul-18 08:32N 49°29' E 000°10'0 0.0
2016-Jul-18 07:32N 49°29' E 000°10'0 0.0
2016-Jul-18 06:32N 49°29' E 000°10'0 0.0
2016-Jul-18 05:32N 49°29' E 000°10'0 0.0
2016-Jul-18 04:32N 49°29' E 000°10'0 0.0
2016-Jul-18 03:32N 49°29' E 000°10'0 0.0
2016-Jul-18 02:32N 49°29' E 000°10'0 0.0
2016-Jul-18 01:32N 49°29' E 000°10'0 0.0
2016-Jul-18 00:32N 49°29' E 000°10'0 0.0
2016-Jul-17 23:32N 49°29' E 000°10'0 0.0
2016-Jul-17 22:32N 49°29' E 000°10'0 0.0
2016-Jul-17 21:32N 49°29' E 000°10'0 0.0
2016-Jul-17 20:32N 49°29' E 000°10'0 0.0
2016-Jul-17 19:32N 49°29' E 000°10'  
Track history (hours):
 
Tides and Currents Weather Stations Pressure Air Temp Water Temp Dewpoint Dewpoint Depression Visibility Wind Speed Wind Dir Waves Ship Positions

CMA CGM Tosca

Last reported at 2016-Jul-27 19:13 UTC. Time now 2016-Aug-28 00:31 UTC.
Position N 28°54' E 032°51'.
Warning: this ship's position is 31 days out of date.

Length 334 m; draft 13 m.

Type: Ship. MMSI: 228335900.

Date/timePositionNaut miles runAvg speedWind from/ knotsBaromVisibWave heightAir tempDewpointWater temp
2016-Jul-27 19:13N 28°54' E 032°51'153 9.6
2016-Jul-27 03:17N 31°25' E 032°22'2 2.2
2016-Jul-27 02:24N 31°26' E 032°20'0 0.0
2016-Jul-27 00:30N 31°26' E 032°20'0 0.0
2016-Jul-26 23:33N 31°26' E 032°20'0 0.0
2016-Jul-26 22:27N 31°26' E 032°20'0 0.0
2016-Jul-26 21:12N 31°26' E 032°20'0 0.2
2016-Jul-26 20:17N 31°26' E 032°20'811.1
2016-Jul-26 19:33N 31°32' E 032°13'1816.0
2016-Jul-26 18:28N 31°44' E 031°58'1415.7
2016-Jul-26 17:33N 31°51' E 031°43'1616.2
2016-Jul-26 16:33N 31°57' E 031°25'1615.9
2016-Jul-26 15:32N 32°01' E 031°07'1515.6
2016-Jul-26 14:33N 32°06' E 030°50'1615.7
2016-Jul-26 13:34N 32°10' E 030°32'1815.8
2016-Jul-26 12:26N 32°16' E 030°12'1415.9
2016-Jul-26 11:33N 32°20' E 029°57'20016.6
2016-Jul-25 23:33N 33°20' E 026°10'54816.1
2016-Jul-24 13:33N 36°06' E 015°34'1616.2
2016-Jul-24 12:33N 36°12' E 015°15'1616.0
2016-Jul-24 11:33N 36°17' E 014°57'1615.9
2016-Jul-24 10:33N 36°22' E 014°38'1616.1
2016-Jul-24 09:33N 36°26' E 014°18'1716.6
2016-Jul-24 08:33N 36°31' E 013°59'1616.1
2016-Jul-24 07:33N 36°36' E 013°40'1616.5
2016-Jul-24 06:33N 36°42' E 013°20'1716.6
2016-Jul-24 05:33N 36°46' E 013°00'1616.2
2016-Jul-24 04:33N 36°51' E 012°41'1616.3
2016-Jul-24 03:33N 36°56' E 012°22'1716.7
2016-Jul-24 02:33N 37°01' E 012°02'1616.4
2016-Jul-24 01:33N 37°08' E 011°43'1716.7
2016-Jul-24 00:30N 37°17' E 011°24'38916.2
2016-Jul-23 00:26N 36°60' E 003°16'1516.6
2016-Jul-22 23:32N 36°58' E 002°58'1616.5
2016-Jul-22 22:33N 36°56' E 002°38'1616.3
2016-Jul-22 21:33N 36°53' E 002°18'1716.9
2016-Jul-22 20:32N 36°51' E 001°56'1616.4
2016-Jul-22 19:33N 36°48' E 001°36'1716.9
2016-Jul-22 18:33N 36°46' E 001°16'1716.8
2016-Jul-22 17:34N 36°44' E 000°55'1616.2
2016-Jul-22 16:33N 36°41' E 000°35'1816.7
2016-Jul-22 15:28N 36°39' E 000°13'1516.6
2016-Jul-22 14:33N 36°37' W 000°06'1716.6
2016-Jul-22 13:33N 36°34' W 000°27'1716.7
2016-Jul-22 12:33N 36°33' W 000°47'1716.6
2016-Jul-22 11:33N 36°30' W 001°08'1616.3
2016-Jul-22 10:33N 36°28' W 001°28'18516.8
2016-Jul-21 23:33N 35°59' W 005°14'4117.5
2016-Jul-21 21:12N 35°54' W 006°05'5216.6
2016-Jul-21 18:04N 36°06' W 007°08'816.4
2016-Jul-21 17:33N 36°08' W 007°18'1616.3
2016-Jul-21 16:33N 36°12' W 007°38'1616.4
2016-Jul-21 15:33N 36°17' W 007°57'1616.2
2016-Jul-21 14:33N 36°21' W 008°16'1616.3
2016-Jul-21 13:33N 36°25' W 008°36'1616.4
2016-Jul-21 12:33N 36°28' W 008°56'1616.4
2016-Jul-21 11:33N 36°33' W 009°16'1716.1
2016-Jul-21 10:31N 36°45' W 009°30'1616.2
2016-Jul-21 09:32N 36°60' W 009°36'2116.3
2016-Jul-21 08:15N 37°20' W 009°43'1116.5
2016-Jul-21 07:33N 37°31' W 009°46'1716.4
2016-Jul-21 06:33N 37°47' W 009°51'1616.2
2016-Jul-21 05:33N 38°03' W 009°55'1716.9
2016-Jul-21 04:33N 38°19' W 010°01'1717.2
2016-Jul-21 03:33N 38°36' W 010°06'1816.8
2016-Jul-21 02:30N 38°54' W 010°07'1616.2
2016-Jul-21 01:32N 39°09' W 010°07'1616.7
2016-Jul-21 00:33N 39°26' W 010°07'1716.8
2016-Jul-20 23:31N 39°43' W 010°08'1616.7
2016-Jul-20 22:33N 39°60' W 010°08'1816.9
2016-Jul-20 21:28N 40°18' W 010°07'40716.3
2016-Jul-19 20:33N 46°48' W 007°28'1616.6
2016-Jul-19 19:34N 47°02' W 007°17'1716.7
2016-Jul-19 18:33N 47°17' W 007°05'1616.1
2016-Jul-19 17:33N 47°31' W 006°54'2216.6
2016-Jul-19 16:15N 47°49' W 006°37'1216.1
2016-Jul-19 15:32N 48°00' W 006°30'1515.4
2016-Jul-19 14:33N 48°13' W 006°19'1515.2
2016-Jul-19 13:33N 48°27' W 006°09'1515.5
2016-Jul-19 12:33N 48°41' W 005°59'1616.1
2016-Jul-19 11:33N 48°55' W 005°46'1717.0
2016-Jul-19 10:33N 49°03' W 005°23'1917.5
2016-Jul-19 09:28N 49°12' W 004°58'1617.2
2016-Jul-19 08:32N 49°20' W 004°37'1616.5
2016-Jul-19 07:34N 49°28' W 004°16'4815.9
2016-Jul-19 04:34N 49°52' W 003°12'1716.7
2016-Jul-19 03:33N 50°00' W 002°49'1817.9
2016-Jul-19 02:33N 50°04' W 002°21'1919.2
2016-Jul-19 01:33N 50°04' W 001°52'1918.9
2016-Jul-19 00:34N 49°53' W 001°27'2020.1
2016-Jul-18 23:33N 49°46' W 000°59'1818.0
2016-Jul-18 22:34N 49°38' W 000°33'1716.7
2016-Jul-18 21:34N 49°32' W 000°09'1212.4
2016-Jul-18 20:33N 49°28' E 000°09'1 1.0
2016-Jul-18 19:32N 49°29' E 000°10'0 0.0
2016-Jul-18 18:32N 49°29' E 000°10'0 0.0
2016-Jul-18 17:32N 49°29' E 000°10'0 0.0
2016-Jul-18 16:32N 49°29' E 000°10'0 0.0
2016-Jul-18 15:29N 49°29' E 000°10'0 0.0
2016-Jul-18 14:32N 49°29' E 000°10'0 0.0
2016-Jul-18 13:32N 49°29' E 000°10'0 0.0
2016-Jul-18 12:32N 49°29' E 000°10'0 0.0
2016-Jul-18 11:32N 49°29' E 000°10'0 0.0
2016-Jul-18 10:32N 49°29' E 000°10'0 0.0
2016-Jul-18 09:32N 49°29' E 000°10'0 0.0
2016-Jul-18 08:32N 49°29' E 000°10'0 0.0
2016-Jul-18 07:32N 49°29' E 000°10'0 0.0
2016-Jul-18 06:32N 49°29' E 000°10'0 0.0
2016-Jul-18 05:32N 49°29' E 000°10'0 0.0
2016-Jul-18 04:32N 49°29' E 000°10'0 0.0
2016-Jul-18 03:32N 49°29' E 000°10'0 0.0
2016-Jul-18 02:32N 49°29' E 000°10'0 0.0
2016-Jul-18 01:32N 49°29' E 000°10'0 0.0
2016-Jul-18 00:32N 49°29' E 000°10'0 0.0
2016-Jul-17 23:32N 49°29' E 000°10'0 0.0
2016-Jul-17 22:32N 49°29' E 000°10'0 0.0
2016-Jul-17 21:32N 49°29' E 000°10'0 0.0
2016-Jul-17 20:32N 49°29' E 000°10'0 0.0
2016-Jul-17 19:32N 49°29' E 000°10'  

Dump ship's entire track history